Terminal Aerodrome Forecast
Issued by NWS Grand Forks, ND

Home | Current Version | Previous Version | Graphics & Text | Print | Product List | Glossary On
Versions: 1 2 3 4 5 6 7 8 9 10 11 12
000
FTUS43 KFGF 142300
TAFGFK
TAF
KGFK 142340Z 1500/1524 35015G22KT P6SM SCT040
     FM150100 34014KT P6SM FEW040
     FM150300 VRB03KT P6SM SKC
     FM151200 15007KT P6SM BKN200
     FM151700 13014G20KT P6SM BKN150=

USA.gov is the U.S. government's official web portal to all federal, state and local government web resources and services.